createdAt,value
2022-08-21T00:01:54.561Z,17.64
2022-08-21T00:07:02.825Z,17.64
2022-08-21T00:12:14.186Z,17.58
2022-08-21T00:17:19.224Z,17.49
2022-08-21T00:22:26.593Z,17.38
2022-08-21T00:27:31.514Z,17.33
2022-08-21T00:32:36.574Z,17.28
2022-08-21T00:37:44.326Z,17.24
2022-08-21T00:42:53.595Z,17.22
2022-08-21T00:48:02.088Z,17.22
2022-08-21T00:53:10.372Z,17.22
2022-08-21T00:58:18.192Z,17.27
2022-08-21T01:03:27.408Z,17.27
2022-08-21T01:08:36.051Z,17.22
2022-08-21T01:13:54.859Z,17.17
2022-08-21T01:18:59.641Z,17.12
2022-08-21T01:24:07.794Z,17.10
2022-08-21T01:29:20.385Z,17.09
2022-08-21T01:34:25.673Z,17.04
2022-08-21T01:39:38.303Z,17.02
2022-08-21T01:44:43.450Z,16.91
2022-08-21T01:49:57.679Z,16.85
2022-08-21T01:55:11.744Z,16.89
2022-08-21T02:00:20.801Z,16.89
2022-08-21T02:05:27.952Z,16.88
2022-08-21T02:10:36.367Z,16.89
2022-08-21T02:15:41.010Z,16.83
2022-08-21T02:20:55.855Z,16.79
2022-08-21T02:26:10.670Z,16.77
2022-08-21T02:31:19.772Z,16.79
2022-08-21T02:36:27.877Z,16.80
2022-08-21T02:41:35.738Z,16.81
2022-08-21T02:46:40.342Z,16.79
2022-08-21T02:51:48.346Z,16.82
2022-08-21T02:56:55.606Z,16.81
2022-08-21T03:02:00.643Z,16.78
2022-08-21T03:07:12.502Z,16.77
2022-08-21T03:12:21.782Z,16.77
2022-08-21T03:18:05.823Z,16.77
2022-08-21T03:23:13.250Z,16.75
2022-08-21T03:28:26.510Z,16.74
2022-08-21T03:33:33.204Z,16.73
2022-08-21T03:38:42.088Z,16.68
2022-08-21T03:43:49.608Z,16.66
2022-08-21T03:48:57.385Z,16.62
2022-08-21T03:54:06.129Z,16.59
2022-08-21T03:59:17.437Z,16.57
2022-08-21T04:04:24.318Z,16.57
2022-08-21T04:09:34.910Z,16.54
2022-08-21T04:14:45.639Z,16.49
2022-08-21T04:19:53.962Z,16.47
2022-08-21T04:24:58.909Z,16.47
2022-08-21T04:30:11.680Z,16.46
2022-08-21T04:35:22.656Z,16.44
2022-08-21T04:40:31.467Z,16.43
2022-08-21T04:45:55.859Z,16.42
2022-08-21T04:51:06.743Z,16.40
2022-08-21T04:56:16.778Z,16.32
2022-08-21T05:01:28.238Z,16.30
2022-08-21T05:06:34.916Z,16.27
2022-08-21T05:11:42.046Z,16.25
2022-08-21T05:16:58.621Z,16.25
2022-08-21T05:22:05.564Z,16.21
2022-08-21T05:27:10.143Z,16.19
2022-08-21T05:32:18.962Z,16.22
2022-08-21T05:37:23.641Z,16.24
2022-08-21T05:42:30.571Z,16.23
2022-08-21T05:47:38.863Z,16.27
2022-08-21T05:52:48.482Z,16.26
2022-08-21T05:58:02.020Z,16.29
2022-08-21T06:03:27.282Z,16.26
2022-08-21T06:08:44.354Z,16.27
2022-08-21T06:13:50.267Z,16.27
2022-08-21T06:19:04.515Z,16.27
2022-08-21T06:24:12.591Z,16.32
2022-08-21T06:29:19.180Z,16.40
2022-08-21T06:34:44.768Z,16.51
2022-08-21T06:39:56.792Z,16.56
2022-08-21T06:45:09.230Z,16.67
2022-08-21T06:50:20.714Z,16.78
2022-08-21T06:55:29.087Z,16.88
2022-08-21T07:00:36.492Z,17.01
2022-08-21T07:05:44.159Z,17.12
2022-08-21T07:10:49.668Z,17.23
2022-08-21T07:15:58.172Z,17.35
2022-08-21T07:21:10.232Z,17.43
2022-08-21T07:26:16.440Z,17.56
2022-08-21T07:31:23.247Z,17.71
2022-08-21T07:36:30.416Z,17.84
2022-08-21T07:41:38.709Z,18.00
2022-08-21T07:46:46.062Z,18.14
2022-08-21T07:51:56.082Z,18.25
2022-08-21T07:57:02.686Z,18.43
2022-08-21T08:02:07.763Z,18.56
2022-08-21T08:07:14.961Z,18.62
2022-08-21T08:12:23.340Z,18.73
2022-08-21T08:17:33.266Z,18.81
2022-08-21T08:22:42.393Z,18.89
2022-08-21T08:27:47.176Z,19.02
2022-08-21T08:32:53.206Z,19.03
2022-08-21T08:38:00.469Z,19.13
2022-08-21T08:43:06.503Z,19.22
2022-08-21T08:48:16.350Z,19.35
2022-08-21T08:53:32.392Z,19.49
2022-08-21T08:58:41.712Z,19.61
2022-08-21T09:03:50.714Z,19.76
2022-08-21T09:09:12.650Z,19.85
2022-08-21T09:14:29.722Z,20.07
2022-08-21T09:19:56.989Z,20.24
2022-08-21T09:25:12.447Z,20.30
2022-08-21T09:30:17.575Z,20.31
2022-08-21T09:35:25.142Z,20.52
2022-08-21T09:40:40.075Z,20.42
2022-08-21T09:45:46.270Z,20.64
2022-08-21T09:50:53.881Z,20.68
2022-08-21T09:56:21.511Z,20.84
2022-08-21T10:01:29.901Z,20.92
2022-08-21T10:06:36.007Z,21.14
2022-08-21T10:11:57.704Z,21.37
2022-08-21T10:17:05.986Z,21.43
2022-08-21T10:22:24.067Z,21.66
2022-08-21T10:27:45.986Z,21.64
2022-08-21T10:33:07.137Z,21.71
2022-08-21T10:38:49.183Z,21.86
2022-08-21T10:44:08.440Z,21.90
2022-08-21T10:49:24.201Z,21.97
2022-08-21T10:54:42.663Z,22.08
2022-08-21T10:59:57.571Z,22.26
2022-08-21T11:05:08.973Z,22.36
2022-08-21T11:10:20.321Z,22.44
2022-08-21T11:15:41.032Z,22.68
2022-08-21T11:20:52.989Z,23.07
2022-08-21T11:26:04.362Z,23.33
2022-08-21T11:31:27.134Z,23.39
2022-08-21T11:36:47.015Z,23.33
2022-08-21T11:42:03.834Z,23.32
2022-08-21T11:47:18.605Z,23.31
2022-08-21T11:52:28.621Z,23.21
2022-08-21T11:57:41.894Z,22.95
2022-08-21T12:02:54.614Z,23.04
2022-08-21T12:08:14.080Z,23.18
2022-08-21T12:13:39.782Z,23.35
2022-08-21T12:19:17.832Z,23.68
2022-08-21T12:24:37.675Z,23.86
2022-08-21T12:29:49.890Z,23.95
2022-08-21T12:35:01.735Z,23.88
2022-08-21T12:40:14.466Z,23.77
2022-08-21T12:45:24.137Z,23.90
2022-08-21T12:50:39.521Z,24.03
2022-08-21T12:55:46.790Z,24.34
2022-08-21T13:00:54.523Z,24.39
2022-08-21T13:06:02.638Z,24.65
2022-08-21T13:11:32.761Z,25.03
2022-08-21T13:16:40.559Z,25.11
2022-08-21T13:21:49.941Z,25.10
2022-08-21T13:32:34.603Z,25.37
2022-08-21T13:37:49.826Z,25.83
2022-08-21T13:48:41.083Z,26.39
2022-08-21T13:53:56.414Z,26.74
2022-08-21T13:59:03.202Z,26.98
2022-08-21T14:04:11.677Z,27.16
2022-08-21T14:09:30.553Z,27.43
2022-08-21T14:14:38.223Z,27.53
2022-08-21T14:19:45.811Z,27.67
2022-08-21T14:24:55.042Z,27.71
2022-08-21T14:30:03.177Z,27.57
2022-08-21T14:35:09.721Z,27.36
2022-08-21T14:40:18.453Z,27.59
2022-08-21T14:45:29.369Z,27.43
2022-08-21T14:50:34.740Z,26.96
2022-08-21T14:55:56.694Z,26.60
2022-08-21T15:01:05.024Z,26.66
2022-08-21T15:06:12.386Z,26.63
2022-08-21T15:11:42.002Z,27.27
2022-08-21T15:16:47.524Z,27.59
2022-08-21T15:21:52.605Z,28.04
2022-08-21T15:27:00.601Z,27.90
2022-08-21T15:32:19.975Z,28.25
2022-08-21T15:37:25.134Z,28.55
2022-08-21T15:42:32.684Z,28.55
2022-08-21T15:47:40.003Z,28.93
2022-08-21T15:52:44.738Z,29.00
2022-08-21T15:57:57.331Z,29.15
2022-08-21T16:03:03.932Z,29.20
2022-08-21T16:08:08.802Z,29.27
2022-08-21T16:13:25.674Z,29.43
2022-08-21T16:18:30.538Z,29.20
2022-08-21T16:23:35.621Z,29.43
2022-08-21T16:28:46.463Z,29.61
2022-08-21T16:33:57.168Z,29.52
2022-08-21T16:39:03.975Z,29.42
2022-08-21T16:44:12.739Z,29.52
2022-08-21T16:49:20.519Z,29.21
2022-08-21T16:54:25.535Z,28.94
2022-08-21T16:59:33.840Z,28.78
2022-08-21T17:04:38.462Z,28.60
2022-08-21T17:09:43.358Z,28.43
2022-08-21T17:14:51.647Z,28.35
2022-08-21T17:19:56.638Z,28.05
2022-08-21T17:25:01.612Z,27.71
2022-08-21T17:30:10.526Z,27.24
2022-08-21T17:35:15.729Z,26.59
2022-08-21T17:40:20.807Z,26.26
2022-08-21T17:45:28.179Z,25.76
2022-08-21T17:50:32.886Z,25.33
2022-08-21T17:55:41.770Z,25.15
2022-08-21T18:00:49.723Z,24.95
2022-08-21T18:05:57.053Z,24.66
2022-08-21T18:11:16.011Z,24.35
2022-08-21T18:16:33.543Z,23.92
2022-08-21T18:21:38.475Z,23.46
2022-08-21T18:26:44.773Z,23.08
2022-08-21T18:31:52.827Z,22.81
2022-08-21T18:36:58.796Z,22.56
2022-08-21T18:42:05.482Z,22.38
2022-08-21T18:47:18.716Z,22.21
2022-08-21T18:52:23.600Z,21.98
2022-08-21T18:57:34.308Z,21.82
2022-08-21T19:02:44.022Z,21.64
2022-08-21T19:07:48.950Z,21.34
2022-08-21T19:12:54.725Z,21.18
2022-08-21T19:18:08.024Z,21.03
2022-08-21T19:23:15.440Z,20.91
2022-08-21T19:28:29.887Z,20.74
2022-08-21T19:33:41.062Z,20.68
2022-08-21T19:38:49.288Z,20.56
2022-08-21T19:43:58.249Z,20.41
2022-08-21T19:49:09.510Z,20.24
2022-08-21T19:54:19.180Z,20.10
2022-08-21T19:59:27.558Z,19.97
2022-08-21T20:04:35.947Z,19.79
2022-08-21T20:09:40.609Z,19.66
2022-08-21T20:14:49.232Z,19.56
2022-08-21T20:20:00.029Z,19.48
2022-08-21T20:25:04.813Z,19.36
2022-08-21T20:30:12.869Z,19.28
2022-08-21T20:35:21.523Z,19.19
2022-08-21T20:40:33.036Z,19.09
2022-08-21T20:45:39.119Z,19.02
2022-08-21T20:50:50.915Z,18.99
2022-08-21T20:56:00.395Z,18.91
2022-08-21T21:01:12.639Z,18.86
2022-08-21T21:06:26.204Z,18.81
2022-08-21T21:11:38.389Z,18.77
2022-08-21T21:16:50.939Z,18.70
2022-08-21T21:22:07.043Z,18.63
2022-08-21T21:27:21.445Z,18.56
2022-08-21T21:32:27.460Z,18.50
2022-08-21T21:37:45.860Z,18.41
2022-08-21T21:43:06.457Z,18.32
2022-08-21T21:48:22.364Z,18.19
2022-08-21T21:53:51.460Z,17.99
2022-08-21T21:59:12.936Z,17.91
2022-08-21T22:04:28.506Z,17.82
2022-08-21T22:09:46.175Z,17.69
2022-08-21T22:14:50.872Z,17.59
2022-08-21T22:19:59.365Z,17.53
2022-08-21T22:25:13.135Z,17.38
2022-08-21T22:30:20.354Z,17.32
2022-08-21T22:35:27.900Z,17.31
2022-08-21T22:40:39.625Z,17.32
2022-08-21T22:45:58.693Z,17.34
2022-08-21T22:51:08.501Z,17.36
2022-08-21T22:56:31.934Z,17.35
2022-08-21T23:01:43.487Z,17.30
2022-08-21T23:06:52.065Z,17.25
2022-08-21T23:12:21.091Z,17.17
2022-08-21T23:17:41.458Z,17.03
2022-08-21T23:22:58.980Z,16.93
2022-08-21T23:28:19.046Z,16.88
2022-08-21T23:33:38.734Z,16.86
2022-08-21T23:38:55.858Z,16.87
2022-08-21T23:44:16.398Z,16.86
2022-08-21T23:49:32.248Z,16.73
2022-08-21T23:54:47.702Z,16.59
